Cold Spring, New Jersey
Current Conditions -  °F | °C
As of 2:35 AM on Thursday 23 Oct 2014 (Local Time) from KWWD Reporting Station
Overcast Overcast  
Wind Chill: 54°   Ceiling: 2200
Heat Index: 54°   Visibility: 10mi
Dew Point: 45°   Wind: 15mph
Humidity: 72%   Direction: 330°NNW
Pressure: 29.73"   Gusts: 24mph
Location:  38.9876°N, 74.9167°W
Report Text: KWWD 230635Z AUTO 33013G21KT 10SM SCT017 OVC022 12/07 A2973 RMK AO1
Loading
Personal Weather Stations






























Interactive Weather Map
Tropical Storm Tracking
New forecast layout! Learn more

10-Day Weather Forecast

Advertisements
Track Severe Weather on mobile